Time;durP1;ratioP1;P1;durP2;ratioP2;P2;SDS_P1;SDS_P2;PMS_P1;PMS_P2;Temp;Humidity;BMP_temperature;BMP_pressure;BME280_temperature;BME280_humidity;BME280_pressure;Samples;Min_cycle;Max_cycle;Signal;HPM_P1;HPM_P2
2023/08/23 00:01:56;;;;;;;3.83;3.40;;;15.20;99.90;;;;;;5082028;28;20043;-78
2023/08/23 00:04:22;;;;;;;5.40;3.90;;;15.40;99.90;;;;;;5071617;28;20487;-78
2023/08/23 00:06:48;;;;;;;4.72;4.22;;;15.10;99.90;;;;;;5066608;28;20080;-78
2023/08/23 00:09:16;;;;;;;4.63;3.95;;;15.10;99.90;;;;;;5070383;28;20036;-78
2023/08/23 00:11:42;;;;;;;4.93;3.88;;;15.10;99.90;;;;;;5066240;28;20414;-78
2023/08/23 00:14:08;;;;;;;3.80;3.50;;;15.00;99.90;;;;;;5068751;28;20048;-78
2023/08/23 00:16:34;;;;;;;3.95;3.53;;;15.00;99.90;;;;;;5069044;28;20056;-78
2023/08/23 00:18:59;;;;;;;3.72;3.42;;;15.00;99.90;;;;;;5067648;28;20052;-78
2023/08/23 00:21:25;;;;;;;6.50;3.30;;;15.00;99.90;;;;;;5076894;28;20040;-78
2023/08/23 00:23:50;;;;;;;3.40;3.15;;;14.90;99.90;;;;;;5067989;28;20039;-78
2023/08/23 00:26:16;;;;;;;3.90;3.50;;;14.90;99.90;;;;;;5065840;28;20055;-78
2023/08/23 00:28:42;;;;;;;5.20;3.47;;;14.90;99.90;;;;;;5066163;28;20054;-77
2023/08/23 00:31:08;;;;;;;5.38;4.25;;;14.80;99.90;;;;;;5066318;28;20045;-77
2023/08/23 00:33:34;;;;;;;13.40;5.03;;;14.80;99.90;;;;;;5075197;28;20045;-77
2023/08/23 00:35:59;;;;;;;9.10;5.40;;;14.80;99.90;;;;;;5067326;28;20041;-77
2023/08/23 00:38:25;;;;;;;30.75;6.03;;;14.80;99.90;;;;;;5065276;28;20102;-78
2023/08/23 00:40:50;;;;;;;7.38;5.68;;;14.70;99.90;;;;;;5069467;28;20090;-78
2023/08/23 00:43:16;;;;;;;6.32;5.30;;;14.70;99.90;;;;;;5064633;28;20040;-78
2023/08/23 00:45:42;;;;;;;5.40;4.90;;;14.70;99.90;;;;;;5076052;28;20055;-78
2023/08/23 00:48:11;;;;;;;5.68;5.07;;;14.70;99.90;;;;;;5072537;28;20079;-78
2023/08/23 00:50:38;;;;;;;6.32;5.35;;;14.70;99.90;;;;;;5067681;28;20052;-78
2023/08/23 00:53:04;;;;;;;6.90;4.75;;;14.70;99.90;;;;;;5067884;28;20127;-78
2023/08/23 00:55:30;;;;;;;5.35;4.85;;;14.70;99.90;;;;;;5065885;28;20045;-78
2023/08/23 00:57:57;;;;;;;6.15;5.10;;;14.70;99.90;;;;;;5065630;28;20071;-78
2023/08/23 01:00:23;;;;;;;5.53;5.03;;;14.60;99.90;;;;;;5070647;28;20103;-78
2023/08/23 01:02:48;;;;;;;6.75;5.25;;;14.60;99.90;;;;;;5081700;28;20052;-78
2023/08/23 01:05:15;;;;;;;5.95;4.53;;;14.70;99.90;;;;;;5069649;28;20052;-78
2023/08/23 01:08:07;;;;;;;20.30;7.10;;;14.70;99.90;;;;;;5083945;28;20156;-78
2023/08/23 01:10:51;;;;;;;32.90;7.07;;;14.70;99.90;;;;;;5089577;28;20518;-78
2023/08/23 01:13:27;;;;;;;48.88;7.57;;;14.70;99.90;;;;;;5071203;28;20261;-78
2023/08/23 01:15:57;;;;;;;6.70;6.00;;;14.70;99.90;;;;;;5080880;28;20498;-78
2023/08/23 01:18:24;;;;;;;8.38;6.78;;;14.70;99.90;;;;;;5070530;28;20052;-78
2023/08/23 01:20:52;;;;;;;20.65;7.38;;;14.70;99.90;;;;;;5069691;28;20190;-78
2023/08/23 01:23:19;;;;;;;12.25;7.22;;;14.70;99.90;;;;;;5083063;28;20048;-78
2023/08/23 01:25:50;;;;;;;8.65;6.82;;;14.70;99.90;;;;;;5061015;28;20109;-78
2023/08/23 01:28:16;;;;;;;24.15;8.32;;;14.70;99.90;;;;;;5070976;28;20037;-78
2023/08/23 01:30:42;;;;;;;10.73;7.60;;;14.70;99.90;;;;;;5084059;28;20585;-78
2023/08/23 01:33:31;;;;;;;16.50;7.32;;;14.70;99.90;;;;;;5079854;28;20093;-78
2023/08/23 01:36:25;;;;;;;23.52;7.85;;;14.70;99.90;;;;;;5070103;28;20040;-78
2023/08/23 01:38:53;;;;;;;8.32;7.28;;;14.60;99.90;;;;;;5087950;28;20048;-78
2023/08/23 01:41:19;;;;;;;7.88;7.07;;;14.60;99.90;;;;;;5074116;28;20119;-78
2023/08/23 01:43:46;;;;;;;7.80;6.85;;;14.60;99.90;;;;;;5069322;28;20786;-78
2023/08/23 01:46:11;;;;;;;8.60;7.13;;;14.50;99.90;;;;;;5076922;28;20044;-78
2023/08/23 01:48:37;;;;;;;7.65;6.85;;;14.50;99.90;;;;;;5082156;28;20055;-77
2023/08/23 01:51:03;;;;;;;8.82;7.78;;;14.50;99.90;;;;;;5069782;28;20075;-78
2023/08/23 01:53:28;;;;;;;9.75;7.80;;;14.50;99.90;;;;;;5071545;28;20081;-78
2023/08/23 01:55:54;;;;;;;8.77;7.93;;;14.50;99.90;;;;;;5070338;28;20056;-78
2023/08/23 01:58:19;;;;;;;9.05;7.53;;;14.40;99.90;;;;;;5069701;28;20052;-78
2023/08/23 02:00:47;;;;;;;8.77;7.88;;;14.50;99.90;;;;;;5069060;28;20049;-78
2023/08/23 02:03:12;;;;;;;8.40;7.53;;;14.40;99.90;;;;;;5069219;28;20099;-78
2023/08/23 02:05:38;;;;;;;8.73;7.82;;;14.40;99.90;;;;;;5079871;28;20067;-78
2023/08/23 02:08:04;;;;;;;7.47;6.72;;;14.40;99.90;;;;;;5070773;28;20044;-78
2023/08/23 02:10:29;;;;;;;7.22;6.47;;;14.40;99.90;;;;;;5079481;28;20032;-78
2023/08/23 02:12:55;;;;;;;7.50;6.80;;;14.40;99.90;;;;;;5050526;28;20044;-78
2023/08/23 02:15:20;;;;;;;7.10;6.40;;;14.40;99.90;;;;;;5069487;28;20052;-78
2023/08/23 02:17:46;;;;;;;6.78;6.15;;;14.40;99.90;;;;;;5069365;28;20048;-78
2023/08/23 02:20:12;;;;;;;6.97;6.22;;;14.60;99.90;;;;;;5073705;28;20140;-78
2023/08/23 02:22:37;;;;;;;6.70;6.10;;;14.30;99.90;;;;;;5068359;28;20092;-78
2023/08/23 02:25:03;;;;;;;6.45;5.95;;;14.40;99.90;;;;;;5065036;28;20067;-78
2023/08/23 02:27:28;;;;;;;6.18;5.57;;;14.30;99.90;;;;;;5066459;28;20049;-78
2023/08/23 02:29:54;;;;;;;5.63;5.13;;;14.20;99.90;;;;;;5071206;28;20398;-78
2023/08/23 02:32:19;;;;;;;5.57;5.07;;;14.20;99.90;;;;;;5079251;28;20633;-78
2023/08/23 02:34:45;;;;;;;5.82;5.32;;;14.20;99.90;;;;;;5086191;28;20116;-78
2023/08/23 02:37:11;;;;;;;6.38;5.85;;;14.20;99.90;;;;;;5080553;28;20044;-78
2023/08/23 02:39:36;;;;;;;5.78;5.18;;;14.20;99.90;;;;;;5066136;28;20098;-78
2023/08/23 02:42:02;;;;;;;6.53;5.15;;;14.20;99.90;;;;;;5067574;28;20103;-77
2023/08/23 02:44:27;;;;;;;6.30;5.75;;;14.10;99.90;;;;;;5067964;28;20096;-78
2023/08/23 02:46:53;;;;;;;11.77;6.90;;;14.20;99.90;;;;;;5076338;28;20105;-79
2023/08/23 02:49:18;;;;;;;14.43;7.40;;;14.10;99.90;;;;;;5083444;28;20474;-79
2023/08/23 02:51:44;;;;;;;7.82;6.75;;;14.10;99.90;;;;;;5085324;28;20359;-78
2023/08/23 02:54:10;;;;;;;20.98;6.88;;;14.10;99.90;;;;;;5075124;28;20387;-78
2023/08/23 02:56:35;;;;;;;7.60;6.90;;;14.10;99.90;;;;;;5067727;28;20041;-79
2023/08/23 02:59:01;;;;;;;7.10;6.40;;;14.10;99.90;;;;;;5067635;28;20186;-78
2023/08/23 03:01:26;;;;;;;7.10;6.47;;;14.10;99.90;;;;;;5074895;28;20089;-79
2023/08/23 03:03:52;;;;;;;6.85;6.25;;;14.20;99.90;;;;;;5068239;28;20041;-78
2023/08/23 03:06:17;;;;;;;7.13;6.55;;;14.10;99.90;;;;;;5067312;28;20044;-78
2023/08/23 03:08:43;;;;;;;8.38;7.25;;;14.20;99.90;;;;;;5067544;28;20048;-78
2023/08/23 03:11:09;;;;;;;13.18;6.93;;;14.20;99.90;;;;;;5068394;28;20045;-78
2023/08/23 03:13:34;;;;;;;28.45;7.70;;;14.30;99.90;;;;;;5067695;28;20040;-78
2023/08/23 03:16:00;;;;;;;17.63;7.95;;;14.20;99.90;;;;;;5067280;28;20036;-78
2023/08/23 03:18:26;;;;;;;28.50;7.78;;;14.10;99.90;;;;;;5073183;28;20080;-78
2023/08/23 03:20:52;;;;;;;32.50;8.07;;;14.10;99.90;;;;;;5068128;28;20073;-78
2023/08/23 03:23:19;;;;;;;53.97;8.70;;;14.10;99.90;;;;;;5067377;28;20116;-79
2023/08/23 03:25:46;;;;;;;42.08;8.55;;;14.10;99.90;;;;;;5069089;28;20044;-79
2023/08/23 03:28:14;;;;;;;17.15;7.90;;;14.10;99.90;;;;;;5072513;28;20040;-78
2023/08/23 03:30:41;;;;;;;30.83;7.82;;;14.10;99.90;;;;;;5080018;28;20413;-78
2023/08/23 03:33:06;;;;;;;13.77;7.43;;;14.10;99.90;;;;;;5082529;28;20057;-78
2023/08/23 03:35:32;;;;;;;23.92;7.60;;;14.10;99.90;;;;;;5066579;28;20379;-78
2023/08/23 03:37:58;;;;;;;42.40;8.30;;;14.10;99.90;;;;;;5067927;28;20160;-79
2023/08/23 03:40:23;;;;;;;22.50;7.82;;;14.00;99.90;;;;;;5074350;28;20052;-78
2023/08/23 03:42:49;;;;;;;29.10;8.43;;;14.00;99.90;;;;;;5074172;28;20037;-79
2023/08/23 03:45:16;;;;;;;30.35;8.13;;;14.00;99.90;;;;;;5076760;28;20097;-78
2023/08/23 03:47:42;;;;;;;28.60;7.82;;;14.00;99.90;;;;;;5066874;28;20060;-79
2023/08/23 03:50:08;;;;;;;21.27;7.85;;;14.00;99.90;;;;;;5056678;28;20032;-79
2023/08/23 03:52:34;;;;;;;17.88;7.95;;;13.90;99.90;;;;;;5071396;28;20064;-79
2023/08/23 03:55:00;;;;;;;28.13;8.25;;;13.90;99.90;;;;;;5065956;28;20041;-79
2023/08/23 03:57:25;;;;;;;29.77;8.45;;;13.90;99.90;;;;;;5071125;28;20054;-80
2023/08/23 03:59:51;;;;;;;27.38;8.60;;;13.90;99.90;;;;;;5073145;28;20040;-80
2023/08/23 04:02:17;;;;;;;32.42;8.40;;;13.90;99.90;;;;;;5066277;28;20499;-79
2023/08/23 04:04:42;;;;;;;22.65;8.32;;;13.90;99.90;;;;;;5063234;28;20158;-79
2023/08/23 04:07:11;;;;;;;27.58;8.93;;;13.90;99.90;;;;;;5067720;28;20117;-79
2023/08/23 04:09:37;;;;;;;8.73;7.93;;;13.90;99.90;;;;;;5086034;28;20044;-79
2023/08/23 04:12:02;;;;;;;8.48;7.63;;;13.90;99.90;;;;;;5067283;28;20119;-80
2023/08/23 04:14:28;;;;;;;8.75;7.93;;;13.90;99.90;;;;;;5067291;28;20372;-79
2023/08/23 04:16:53;;;;;;;9.18;7.68;;;13.90;99.90;;;;;;5081420;28;20862;-79
2023/08/23 04:19:19;;;;;;;8.13;7.43;;;14.00;99.90;;;;;;5066537;28;20037;-79
2023/08/23 04:21:48;;;;;;;8.27;7.20;;;14.00;99.90;;;;;;5066085;28;20149;-79
2023/08/23 04:24:15;;;;;;;8.52;7.72;;;14.00;99.90;;;;;;5073253;28;20123;-79
2023/08/23 04:26:40;;;;;;;23.35;8.32;;;14.00;99.90;;;;;;5076454;28;20050;-79
2023/08/23 04:29:06;;;;;;;15.15;8.38;;;14.00;99.90;;;;;;5071536;28;20037;-79
2023/08/23 04:31:31;;;;;;;15.30;7.80;;;14.00;99.90;;;;;;5077348;28;20196;-79
2023/08/23 04:33:57;;;;;;;10.93;8.77;;;14.00;99.90;;;;;;5065301;28;20059;-76
2023/08/23 04:36:22;;;;;;;14.57;8.25;;;14.00;99.90;;;;;;5071657;28;20071;-76
2023/08/23 04:38:48;;;;;;;9.43;8.43;;;14.00;99.90;;;;;;5081740;28;20052;-77
2023/08/23 04:41:13;;;;;;;9.38;8.48;;;14.10;99.90;;;;;;5085048;28;20043;-77
2023/08/23 04:43:39;;;;;;;12.57;9.27;;;14.10;99.90;;;;;;5091295;28;20051;-76
2023/08/23 04:46:08;;;;;;;9.88;8.90;;;14.10;99.90;;;;;;5082631;28;20055;-79
2023/08/23 04:48:33;;;;;;;16.30;10.23;;;14.20;99.90;;;;;;5077521;28;20036;-78
2023/08/23 04:50:59;;;;;;;11.15;9.25;;;14.20;99.90;;;;;;5077764;28;20044;-77
2023/08/23 04:53:25;;;;;;;12.07;10.05;;;14.20;99.90;;;;;;5078395;28;20039;-78
2023/08/23 04:55:55;;;;;;;11.23;10.07;;;14.20;99.90;;;;;;5074916;28;20044;-78
2023/08/23 04:58:22;;;;;;;11.10;10.02;;;14.20;99.90;;;;;;5074757;28;20064;-78
2023/08/23 05:00:48;;;;;;;12.27;9.95;;;14.30;99.90;;;;;;5074998;28;20040;-78
2023/08/23 05:03:14;;;;;;;12.07;9.95;;;14.30;99.90;;;;;;5081954;28;20051;-79
2023/08/23 05:05:41;;;;;;;12.55;10.23;;;14.30;99.90;;;;;;5080635;28;20072;-78
2023/08/23 05:08:06;;;;;;;12.85;11.40;;;14.40;99.90;;;;;;5081177;28;20119;-78
2023/08/23 05:10:32;;;;;;;11.40;10.30;;;14.40;99.90;;;;;;5076369;28;20135;-78
2023/08/23 05:12:59;;;;;;;11.40;10.18;;;14.50;99.90;;;;;;5083267;28;20134;-78
2023/08/23 05:15:25;;;;;;;12.13;10.63;;;14.50;99.90;;;;;;5063536;28;20048;-78
2023/08/23 05:17:52;;;;;;;11.07;9.98;;;14.50;99.90;;;;;;5073474;28;20043;-77
2023/08/23 05:20:17;;;;;;;13.20;11.75;;;14.60;99.90;;;;;;5076660;28;20036;-78
2023/08/23 05:22:43;;;;;;;36.78;11.48;;;14.60;99.90;;;;;;5071997;28;20055;-78
2023/08/23 05:25:09;;;;;;;11.82;10.48;;;14.70;99.90;;;;;;5069209;28;20076;-77
2023/08/23 05:27:34;;;;;;;11.95;10.73;;;14.70;99.90;;;;;;5087624;28;20128;-77
2023/08/23 05:30:01;;;;;;;13.90;11.18;;;14.80;99.90;;;;;;5086805;28;20038;-77
2023/08/23 05:32:26;;;;;;;15.77;11.23;;;14.80;99.90;;;;;;5081447;28;21802;-77
2023/08/23 05:34:52;;;;;;;12.55;10.95;;;14.80;99.90;;;;;;5063939;28;20044;-77
2023/08/23 05:37:19;;;;;;;12.60;10.57;;;14.90;99.90;;;;;;5077380;28;20066;-78
2023/08/23 05:39:45;;;;;;;39.17;11.52;;;14.90;99.90;;;;;;5079988;28;20124;-78
2023/08/23 05:42:10;;;;;;;25.88;11.25;;;14.90;99.90;;;;;;5078553;28;20161;-78
2023/08/23 05:44:36;;;;;;;11.82;10.57;;;14.90;99.90;;;;;;5078074;28;20138;-78
2023/08/23 05:47:02;;;;;;;12.93;11.38;;;14.90;99.90;;;;;;5082228;28;20048;-78
2023/08/23 05:49:27;;;;;;;12.38;11.07;;;14.90;99.90;;;;;;5070108;28;20105;-78
2023/08/23 05:51:54;;;;;;;12.80;11.55;;;15.00;99.90;;;;;;5068456;28;20068;-78
2023/08/23 05:54:20;;;;;;;16.60;11.52;;;15.00;99.90;;;;;;5086317;28;20048;-78
2023/08/23 05:56:45;;;;;;;12.73;11.32;;;15.10;99.90;;;;;;5070178;28;20047;-78
2023/08/23 05:59:11;;;;;;;13.05;11.75;;;15.10;99.90;;;;;;5078595;28;20056;-81
2023/08/23 06:01:38;;;;;;;13.55;11.93;;;15.00;99.90;;;;;;5084901;28;20536;-80
2023/08/23 06:04:04;;;;;;;15.10;12.25;;;15.00;99.90;;;;;;5086543;28;20048;-81
2023/08/23 06:06:30;;;;;;;15.77;11.30;;;15.00;99.90;;;;;;5088531;28;20478;-80
2023/08/23 06:08:55;;;;;;;12.98;11.68;;;15.00;99.90;;;;;;5089435;28;20106;-81
2023/08/23 06:11:21;;;;;;;12.98;11.68;;;15.00;99.90;;;;;;5073429;28;20036;-81
2023/08/23 06:13:50;;;;;;;12.98;11.68;;;15.00;99.90;;;;;;5069318;28;20094;-80
2023/08/23 06:16:15;;;;;;;13.02;11.68;;;15.10;99.90;;;;;;5078238;28;20062;-81
2023/08/23 06:18:41;;;;;;;14.05;12.55;;;15.20;99.90;;;;;;5077446;28;20053;-80
2023/08/23 06:21:06;;;;;;;14.25;12.75;;;15.40;99.90;;;;;;5088468;28;20047;-80
2023/08/23 06:23:32;;;;;;;13.93;12.32;;;15.50;99.90;;;;;;5089097;28;20788;-80
2023/08/23 06:25:58;;;;;;;15.88;12.43;;;15.60;99.90;;;;;;5073688;28;20079;-80
2023/08/23 06:28:24;;;;;;;14.20;12.80;;;15.70;99.90;;;;;;5078032;28;20052;-80
2023/08/23 06:30:50;;;;;;;14.75;12.68;;;15.90;99.90;;;;;;5087575;28;20063;-80
2023/08/23 06:33:15;;;;;;;14.70;12.32;;;16.00;99.90;;;;;;5087045;28;20504;-80
2023/08/23 06:35:41;;;;;;;13.25;11.88;;;16.20;99.90;;;;;;5086307;28;20119;-80
2023/08/23 06:38:07;;;;;;;15.10;12.02;;;16.40;99.90;;;;;;5087628;28;20052;-80
2023/08/23 06:40:33;;;;;;;15.77;12.20;;;16.50;99.90;;;;;;5085312;28;20040;-80
2023/08/23 06:42:58;;;;;;;15.70;11.93;;;16.70;99.90;;;;;;5068473;28;20055;-80
2023/08/23 06:45:24;;;;;;;13.50;12.18;;;16.90;99.90;;;;;;5067413;28;20048;-80
2023/08/23 06:47:50;;;;;;;16.23;11.98;;;17.00;99.90;;;;;;5066954;28;20681;-79
2023/08/23 06:50:15;;;;;;;15.93;11.90;;;17.20;99.90;;;;;;5078844;28;20131;-80
2023/08/23 06:52:41;;;;;;;12.43;11.18;;;17.40;99.90;;;;;;5068690;28;20044;-79
2023/08/23 06:55:07;;;;;;;15.02;11.63;;;17.50;99.90;;;;;;5067326;28;20139;-79
2023/08/23 06:57:33;;;;;;;12.13;10.93;;;17.70;99.90;;;;;;5068886;28;20054;-81
2023/08/23 06:59:58;;;;;;;11.50;10.23;;;17.80;99.90;;;;;;5072831;28;20040;-80
2023/08/23 07:02:27;;;;;;;13.70;11.90;;;17.90;99.90;;;;;;5071701;28;20036;-80
2023/08/23 07:04:53;;;;;;;13.95;11.13;;;17.90;99.90;;;;;;5073663;28;20109;-81
2023/08/23 07:07:20;;;;;;;14.05;11.00;;;17.90;99.90;;;;;;5074622;28;20106;-81
2023/08/23 07:09:46;;;;;;;13.10;11.05;;;18.00;99.90;;;;;;5058117;28;20051;-82
2023/08/23 07:12:11;;;;;;;11.98;10.70;;;18.10;99.90;;;;;;5068447;28;20048;-81
2023/08/23 07:14:37;;;;;;;11.88;10.63;;;18.30;99.90;;;;;;5066325;28;20051;-81
2023/08/23 07:17:02;;;;;;;13.48;10.05;;;18.40;99.90;;;;;;5066707;28;20132;-80
2023/08/23 07:19:28;;;;;;;11.25;10.15;;;18.60;99.90;;;;;;5066625;28;20450;-81
2023/08/23 07:21:54;;;;;;;11.30;9.40;;;18.80;99.90;;;;;;5066740;28;20048;-80
2023/08/23 07:24:19;;;;;;;11.82;9.60;;;19.10;99.90;;;;;;5067191;28;20127;-80
2023/08/23 07:26:45;;;;;;;10.93;8.77;;;19.30;99.90;;;;;;5048625;28;20048;-80
2023/08/23 07:29:15;;;;;;;9.07;8.27;;;19.60;99.90;;;;;;5066874;28;20084;-81
2023/08/23 07:31:42;;;;;;;9.68;8.60;;;19.80;99.90;;;;;;5066715;28;20052;-81
2023/08/23 07:34:07;;;;;;;11.02;8.23;;;19.90;99.90;;;;;;5066305;28;20101;-81
2023/08/23 07:36:33;;;;;;;8.32;7.15;;;20.00;99.90;;;;;;5066357;28;20068;-80
2023/08/23 07:38:58;;;;;;;9.07;7.97;;;20.10;99.90;;;;;;5066905;28;20057;-80
2023/08/23 07:41:24;;;;;;;8.90;7.43;;;20.10;99.90;;;;;;5069143;28;20549;-81
2023/08/23 07:43:49;;;;;;;8.27;7.45;;;20.20;99.90;;;;;;5072311;28;20328;-81
2023/08/23 07:46:15;;;;;;;10.18;7.28;;;20.10;99.90;;;;;;5088310;28;20048;-81
2023/08/23 07:48:41;;;;;;;7.78;6.40;;;20.20;99.90;;;;;;5087265;28;20528;-81
2023/08/23 07:51:07;;;;;;;8.15;7.35;;;20.40;99.90;;;;;;5087942;28;20036;-81
2023/08/23 07:53:33;;;;;;;7.53;6.85;;;20.40;99.90;;;;;;5087865;28;20079;-81
2023/08/23 07:55:59;;;;;;;7.65;6.80;;;20.50;99.90;;;;;;5087525;28;20090;-81
2023/08/23 07:58:24;;;;;;;8.10;7.28;;;20.50;99.90;;;;;;5084950;28;20504;-81
2023/08/23 08:00:51;;;;;;;8.32;6.55;;;20.60;99.90;;;;;;5087882;28;20101;-81
2023/08/23 08:03:17;;;;;;;7.13;6.43;;;20.60;99.90;;;;;;5068889;28;20041;-81
2023/08/23 08:05:42;;;;;;;9.18;6.60;;;20.70;99.90;;;;;;5066331;28;20453;-81
2023/08/23 08:08:08;;;;;;;7.57;6.78;;;20.80;99.90;;;;;;5067769;28;20072;-81
2023/08/23 08:10:34;;;;;;;9.15;6.10;;;21.00;99.90;;;;;;5067347;28;20033;-81
2023/08/23 08:13:00;;;;;;;6.70;5.70;;;21.10;99.90;;;;;;5068196;28;20149;-81
2023/08/23 08:15:26;;;;;;;7.30;5.68;;;21.20;99.90;;;;;;5070939;28;20036;-81
2023/08/23 08:17:52;;;;;;;6.35;5.75;;;21.30;99.90;;;;;;5071715;28;20056;-80
2023/08/23 08:20:19;;;;;;;5.97;5.00;;;21.30;99.90;;;;;;5073353;28;20048;-81
2023/08/23 08:22:45;;;;;;;5.13;4.55;;;21.40;99.90;;;;;;5072119;28;20064;-81
2023/08/23 08:25:11;;;;;;;6.18;4.63;;;21.60;99.90;;;;;;5071797;28;20049;-82
2023/08/23 08:27:37;;;;;;;6.13;4.38;;;21.60;99.90;;;;;;5071416;28;20528;-81
2023/08/23 08:30:02;;;;;;;5.25;4.85;;;21.70;99.90;;;;;;5070645;28;20100;-81
2023/08/23 08:32:28;;;;;;;5.70;5.18;;;21.60;99.90;;;;;;5071816;28;20075;-81
2023/08/23 08:34:55;;;;;;;5.70;5.20;;;21.60;99.90;;;;;;5071936;28;20051;-81
2023/08/23 08:37:24;;;;;;;6.93;5.40;;;21.60;99.90;;;;;;5070110;28;20517;-82
2023/08/23 08:39:49;;;;;;;5.32;4.65;;;21.70;99.90;;;;;;5071044;28;20123;-81
2023/08/23 08:42:15;;;;;;;6.75;4.50;;;21.70;99.90;;;;;;5071273;28;20201;-82
2023/08/23 08:44:44;;;;;;;6.43;4.93;;;21.90;99.90;;;;;;5070661;28;20518;-82
2023/08/23 08:47:09;;;;;;;5.05;4.60;;;22.10;99.90;;;;;;5071661;28;20049;-80
2023/08/23 08:49:35;;;;;;;5.15;4.63;;;22.20;99.90;;;;;;5071208;28;20051;-81
2023/08/23 08:52:04;;;;;;;5.68;4.30;;;22.20;99.90;;;;;;5071437;28;20036;-81
2023/08/23 08:54:30;;;;;;;5.47;4.45;;;22.30;99.90;;;;;;5069183;28;20044;-81
2023/08/23 08:56:57;;;;;;;6.50;3.70;;;22.50;99.90;;;;;;5071994;28;20063;-81
2023/08/23 08:59:22;;;;;;;4.32;3.90;;;22.60;99.90;;;;;;5053626;28;20145;-81
2023/08/23 09:01:50;;;;;;;4.22;3.63;;;22.70;99.90;;;;;;5071137;28;20094;-81
2023/08/23 09:04:16;;;;;;;4.45;3.83;;;22.90;99.90;;;;;;5070971;28;20923;-81
2023/08/23 09:06:45;;;;;;;4.97;4.15;;;22.90;99.90;;;;;;5070824;28;20486;-81
2023/08/23 09:09:12;;;;;;;6.28;4.05;;;23.10;99.90;;;;;;5069639;28;20045;-81
2023/08/23 09:11:37;;;;;;;6.32;3.92;;;23.10;99.90;;;;;;5071244;28;20398;-81
2023/08/23 09:14:17;;;;;;;3.25;2.78;;;23.20;99.90;;;;;;5088864;28;20052;-81
2023/08/23 09:16:45;;;;;;;3.30;2.40;;;23.40;99.90;;;;;;5077721;28;20044;-81
2023/08/23 09:19:11;;;;;;;3.13;2.78;;;23.40;99.90;;;;;;5070937;28;20044;-81
2023/08/23 09:21:45;;;;;;;4.25;2.45;;;23.50;99.90;;;;;;5070831;28;20049;-82
2023/08/23 09:24:13;;;;;;;3.90;2.58;;;23.60;99.90;;;;;;5070343;28;20056;-81
2023/08/23 09:26:39;;;;;;;5.28;2.50;;;23.70;99.90;;;;;;5052365;28;20040;-80
2023/08/23 09:29:05;;;;;;;2.72;2.45;;;23.70;99.90;;;;;;5070552;28;20074;-81
2023/08/23 09:31:31;;;;;;;5.68;2.08;;;23.70;99.90;;;;;;5069734;28;20040;-80
2023/08/23 09:33:58;;;;;;;6.68;2.20;;;23.90;99.90;;;;;;5068736;28;20040;-80
2023/08/23 09:36:28;;;;;;;2.92;2.13;;;23.80;99.90;;;;;;5071653;28;20730;-81
2023/08/23 09:39:00;;;;;;;3.00;2.10;;;23.80;99.90;;;;;;5090293;28;20482;-80
2023/08/23 09:41:26;;;;;;;3.22;2.17;;;23.70;99.90;;;;;;5072224;28;20049;-82
2023/08/23 09:43:56;;;;;;;2.90;2.22;;;23.90;99.90;;;;;;5068986;28;20051;-81
2023/08/23 09:46:25;;;;;;;5.18;2.75;;;24.00;99.90;;;;;;5070211;28;20498;-80
2023/08/23 09:48:55;;;;;;;5.50;2.25;;;24.10;99.90;;;;;;5070077;28;20505;-81
2023/08/23 09:51:24;;;;;;;4.05;2.17;;;24.10;99.90;;;;;;5068660;28;20047;-80
2023/08/23 09:54:03;;;;;;;3.88;2.38;;;24.10;99.90;;;;;;5070561;28;20097;-80
2023/08/23 09:56:28;;;;;;;3.25;2.30;;;24.20;99.90;;;;;;5072103;28;20055;-80
2023/08/23 09:58:55;;;;;;;5.75;2.40;;;24.20;99.90;;;;;;5085848;28;20049;-81
2023/08/23 10:01:24;;;;;;;3.20;2.25;;;24.30;99.90;;;;;;5070689;28;20051;-81
2023/08/23 10:03:50;;;;;;;3.92;2.53;;;24.40;99.90;;;;;;5070830;28;20040;-80
2023/08/23 10:06:16;;;;;;;4.13;3.30;;;24.50;99.90;;;;;;5070823;28;20063;-80
2023/08/23 10:08:43;;;;;;;3.40;2.97;;;24.50;99.90;;;;;;5068746;28;20138;-79
2023/08/23 10:11:08;;;;;;;3.22;2.85;;;24.50;99.90;;;;;;5070456;28;20052;-81
2023/08/23 10:13:35;;;;;;;3.20;2.60;;;24.50;99.90;;;;;;5070226;28;20047;-82
2023/08/23 10:16:03;;;;;;;4.07;3.22;;;24.70;99.90;;;;;;5081312;28;20473;-81
2023/08/23 10:18:30;;;;;;;4.45;3.10;;;24.80;99.90;;;;;;5077483;28;20102;-81
2023/08/23 10:20:56;;;;;;;5.25;3.22;;;25.00;99.90;;;;;;5090632;28;20055;-81
2023/08/23 10:23:22;;;;;;;3.33;3.03;;;25.00;99.90;;;;;;5089797;28;20048;-81
2023/08/23 10:25:49;;;;;;;5.25;3.00;;;25.10;99.90;;;;;;5090627;28;20059;-80
2023/08/23 10:28:16;;;;;;;3.78;2.38;;;25.20;99.90;;;;;;5090228;28;20548;-80
2023/08/23 10:30:43;;;;;;;3.65;2.53;;;25.30;99.90;;;;;;5082089;28;20593;-81
2023/08/23 10:33:14;;;;;;;2.78;2.05;;;25.40;99.60;;;;;;5068381;28;20059;-80
2023/08/23 10:35:45;;;;;;;7.07;3.20;;;25.60;99.90;;;;;;5068753;28;20106;-80
2023/08/23 10:38:11;;;;;;;5.47;2.92;;;25.80;98.70;;;;;;5068457;28;20477;-79
2023/08/23 10:40:41;;;;;;;6.75;2.92;;;25.60;97.70;;;;;;5067312;28;20075;-80
2023/08/23 10:43:14;;;;;;;5.72;2.83;;;25.50;97.60;;;;;;5068316;28;20414;-81
2023/08/23 10:46:06;;;;;;;4.35;2.88;;;25.50;97.40;;;;;;5068482;28;20053;-79
2023/08/23 10:48:31;;;;;;;;;;;25.30;95.80;;;;;;5086318;28;20509;-80
2023/08/23 10:50:57;;;;;;;5.32;2.95;;;25.10;96.30;;;;;;5089042;28;19935;-80
2023/08/23 10:53:24;;;;;;;4.30;2.42;;;25.00;97.90;;;;;;5088215;28;20047;-79
2023/08/23 10:55:50;;;;;;;4.22;2.92;;;24.90;97.90;;;;;;5089017;28;20044;-80
2023/08/23 10:58:17;;;;;;;3.33;2.20;;;24.70;97.10;;;;;;5086539;28;20073;-81
2023/08/23 11:00:45;;;;;;;4.13;2.65;;;24.80;97.60;;;;;;5084558;28;20151;-81
2023/08/23 11:03:13;;;;;;;4.72;2.33;;;24.70;97.40;;;;;;5074328;28;20044;-81
2023/08/23 11:05:39;;;;;;;2.88;2.58;;;24.70;97.30;;;;;;5073234;28;20055;-79
2023/08/23 11:08:05;;;;;;;5.05;2.50;;;24.70;97.60;;;;;;5078410;28;20036;-81
2023/08/23 11:10:31;;;;;;;3.38;2.30;;;24.90;98.00;;;;;;5086956;28;20122;-80
2023/08/23 11:12:56;;;;;;;6.25;2.45;;;25.20;97.70;;;;;;5072734;28;20072;-79
2023/08/23 11:15:23;;;;;;;6.65;3.22;;;25.30;96.80;;;;;;5067734;28;20048;-80
2023/08/23 11:17:49;;;;;;;4.53;3.03;;;25.40;96.10;;;;;;5068322;28;20877;-79
2023/08/23 11:20:16;;;;;;;7.35;3.20;;;25.50;95.60;;;;;;5067899;28;20072;-78
2023/08/23 11:22:43;;;;;;;8.00;2.72;;;25.60;95.70;;;;;;5082730;28;20596;-80
2023/08/23 11:25:08;;;;;;;4.53;3.10;;;25.80;95.50;;;;;;5068011;28;20037;-80
2023/08/23 11:27:34;;;;;;;4.80;2.97;;;25.90;94.40;;;;;;5078293;28;20035;-80
2023/08/23 11:30:01;;;;;;;4.40;2.58;;;25.90;94.70;;;;;;5088790;28;20105;-80
2023/08/23 11:32:27;;;;;;;5.82;3.10;;;26.10;94.20;;;;;;5083042;28;20056;-80
2023/08/23 11:34:56;;;;;;;5.00;3.13;;;26.20;94.00;;;;;;5076640;28;20072;-79
2023/08/23 11:37:25;;;;;;;6.75;4.15;;;26.30;94.10;;;;;;5070139;28;20067;-80
2023/08/23 11:40:07;;;;;;;6.97;3.70;;;26.30;93.70;;;;;;5082522;28;20102;-80
2023/08/23 11:42:34;;;;;;;5.05;3.58;;;26.30;93.10;;;;;;5067538;28;20075;-80
2023/08/23 11:45:05;;;;;;;5.47;3.25;;;26.50;94.10;;;;;;5068150;28;20045;-80
2023/08/23 11:47:31;;;;;;;7.67;3.77;;;26.40;94.00;;;;;;5066705;28;20110;-79
2023/08/23 11:49:57;;;;;;;6.03;3.60;;;26.60;93.80;;;;;;5066119;28;20803;-80
2023/08/23 11:52:22;;;;;;;5.10;3.10;;;26.50;93.20;;;;;;5067459;28;20102;-80
2023/08/23 11:54:52;;;;;;;5.18;3.10;;;26.30;93.40;;;;;;5067536;28;20052;-79
2023/08/23 11:57:17;;;;;;;4.57;3.00;;;26.10;93.00;;;;;;5067788;28;20462;-79
2023/08/23 11:59:44;;;;;;;3.25;2.97;;;25.90;93.00;;;;;;5067469;28;20090;-81
2023/08/23 12:02:10;;;;;;;4.00;2.90;;;25.80;93.10;;;;;;5083756;28;20139;-80
2023/08/23 12:04:45;;;;;;;5.47;2.58;;;25.60;93.20;;;;;;5085922;28;20032;-80
2023/08/23 12:07:12;;;;;;;3.88;2.88;;;25.60;93.10;;;;;;5073659;28;20040;-80
2023/08/23 12:09:39;;;;;;;5.95;2.72;;;25.70;93.00;;;;;;5068414;28;20045;-80
2023/08/23 12:12:05;;;;;;;2.72;1.90;;;25.80;92.20;;;;;;5076470;28;20098;-80
2023/08/23 12:14:31;;;;;;;3.13;2.05;;;25.80;91.00;;;;;;5074638;28;20142;-80
2023/08/23 12:16:56;;;;;;;3.83;2.60;;;25.90;90.30;;;;;;5067028;28;20143;-80
2023/08/23 12:19:22;;;;;;;3.13;1.85;;;25.90;90.30;;;;;;5066689;28;20041;-81
2023/08/23 12:21:51;;;;;;;3.65;1.88;;;25.90;89.90;;;;;;5067554;28;20127;-80
2023/08/23 12:24:17;;;;;;;2.22;1.77;;;25.90;88.60;;;;;;5085239;28;20138;-81
2023/08/23 12:26:43;;;;;;;5.28;2.00;;;26.10;88.40;;;;;;5088295;28;20129;-80
2023/08/23 12:29:09;;;;;;;3.05;1.90;;;26.20;88.70;;;;;;5087836;28;20530;-81
2023/08/23 12:31:34;;;;;;;3.85;1.80;;;26.40;89.20;;;;;;5086933;28;20675;-80
2023/08/23 12:34:00;;;;;;;4.75;1.83;;;26.30;89.50;;;;;;5086529;28;20849;-80
2023/08/23 12:36:25;;;;;;;4.28;1.52;;;26.30;88.20;;;;;;5083090;28;20066;-79
2023/08/23 12:38:52;;;;;;;3.50;2.40;;;26.20;86.90;;;;;;5076702;28;20095;-80